sensor_id;sensor_type;location;lat;lon;timestamp;pressure;altitude;pressure_sealevel;temperature;humidity
65832;BME280;52593;42.648;23.332;2024-01-27T00:00:21;94976.38;;;2.55;66.12
65832;BME280;52593;42.648;23.332;2024-01-27T00:02:46;94977.31;;;2.54;66.10
65832;BME280;52593;42.648;23.332;2024-01-27T00:05:12;94961.03;;;2.48;66.47
65832;BME280;52593;42.648;23.332;2024-01-27T00:07:38;94949.22;;;2.53;65.73
65832;BME280;52593;42.648;23.332;2024-01-27T00:10:03;94958.72;;;2.55;65.39
65832;BME280;52593;42.648;23.332;2024-01-27T00:12:29;94967.22;;;2.59;64.55
65832;BME280;52593;42.648;23.332;2024-01-27T00:14:55;94964.44;;;2.60;63.92
65832;BME280;52593;42.648;23.332;2024-01-27T00:17:20;94953.88;;;2.60;64.10
65832;BME280;52593;42.648;23.332;2024-01-27T00:19:51;94952.69;;;2.64;63.78
65832;BME280;52593;42.648;23.332;2024-01-27T00:22:17;94937.91;;;2.62;63.86
65832;BME280;52593;42.648;23.332;2024-01-27T00:24:43;94930.47;;;2.67;63.66
65832;BME280;52593;42.648;23.332;2024-01-27T00:27:08;94946.06;;;2.70;63.51
65832;BME280;52593;42.648;23.332;2024-01-27T00:29:34;94945.09;;;2.71;63.31
65832;BME280;52593;42.648;23.332;2024-01-27T00:31:59;94951.22;;;2.72;63.21
65832;BME280;52593;42.648;23.332;2024-01-27T00:34:25;94939.34;;;2.66;63.28
65832;BME280;52593;42.648;23.332;2024-01-27T00:36:51;94946.44;;;2.65;63.09
65832;BME280;52593;42.648;23.332;2024-01-27T00:39:17;94939.22;;;2.67;62.77
65832;BME280;52593;42.648;23.332;2024-01-27T00:42:02;94944.88;;;2.63;62.92
65832;BME280;52593;42.648;23.332;2024-01-27T00:44:27;94940.66;;;2.60;62.76
65832;BME280;52593;42.648;23.332;2024-01-27T00:46:53;94941.28;;;2.64;62.36
65832;BME280;52593;42.648;23.332;2024-01-27T00:49:18;94948.00;;;2.68;62.30
65832;BME280;52593;42.648;23.332;2024-01-27T00:51:44;94946.31;;;2.67;62.25
65832;BME280;52593;42.648;23.332;2024-01-27T00:54:09;94961.41;;;2.76;61.56
65832;BME280;52593;42.648;23.332;2024-01-27T00:56:34;94942.91;;;2.76;61.63
65832;BME280;52593;42.648;23.332;2024-01-27T00:59:00;94939.31;;;2.77;61.07
65832;BME280;52593;42.648;23.332;2024-01-27T01:01:25;94941.59;;;2.82;62.01
65832;BME280;52593;42.648;23.332;2024-01-27T01:03:51;94931.44;;;2.87;61.62
65832;BME280;52593;42.648;23.332;2024-01-27T01:06:16;94937.63;;;2.76;62.69
65832;BME280;52593;42.648;23.332;2024-01-27T01:08:42;94937.63;;;2.76;63.23
65832;BME280;52593;42.648;23.332;2024-01-27T01:11:07;94925.38;;;2.75;63.22
65832;BME280;52593;42.648;23.332;2024-01-27T01:13:33;94916.22;;;2.79;63.00
65832;BME280;52593;42.648;23.332;2024-01-27T01:15:58;94933.28;;;2.75;63.19
65832;BME280;52593;42.648;23.332;2024-01-27T01:18:24;94938.47;;;2.77;63.79
65832;BME280;52593;42.648;23.332;2024-01-27T01:20:49;94936.19;;;2.72;63.34
65832;BME280;52593;42.648;23.332;2024-01-27T01:23:15;94934.41;;;2.73;63.42
65832;BME280;52593;42.648;23.332;2024-01-27T01:25:40;94939.31;;;2.77;63.07
65832;BME280;52593;42.648;23.332;2024-01-27T01:28:05;94933.44;;;2.74;64.06
65832;BME280;52593;42.648;23.332;2024-01-27T01:30:31;94939.81;;;2.71;64.52
65832;BME280;52593;42.648;23.332;2024-01-27T01:32:56;94933.56;;;2.72;64.28
65832;BME280;52593;42.648;23.332;2024-01-27T01:35:22;94927.31;;;2.73;62.21
65832;BME280;52593;42.648;23.332;2024-01-27T01:37:47;94932.09;;;2.79;64.02
65832;BME280;52593;42.648;23.332;2024-01-27T01:40:13;94928.63;;;2.79;64.62
65832;BME280;52593;42.648;23.332;2024-01-27T01:42:40;94921.53;;;2.79;63.82
65832;BME280;52593;42.648;23.332;2024-01-27T01:45:06;94928.25;;;2.83;62.87
65832;BME280;52593;42.648;23.332;2024-01-27T01:47:32;94917.28;;;2.88;63.50
65832;BME280;52593;42.648;23.332;2024-01-27T01:49:59;94908.63;;;2.86;63.88
65832;BME280;52593;42.648;23.332;2024-01-27T01:52:25;94902.63;;;2.84;64.63
65832;BME280;52593;42.648;23.332;2024-01-27T01:54:50;94911.13;;;2.88;64.55
65832;BME280;52593;42.648;23.332;2024-01-27T01:57:16;94902.91;;;2.81;63.45
65832;BME280;52593;42.648;23.332;2024-01-27T01:59:42;94902.19;;;2.79;64.14
65832;BME280;52593;42.648;23.332;2024-01-27T02:02:08;94904.56;;;2.82;63.46
65832;BME280;52593;42.648;23.332;2024-01-27T02:04:43;94911.41;;;2.84;63.16
65832;BME280;52593;42.648;23.332;2024-01-27T02:07:11;94911.88;;;2.90;62.50
65832;BME280;52593;42.648;23.332;2024-01-27T02:09:37;94906.19;;;2.94;60.72
65832;BME280;52593;42.648;23.332;2024-01-27T02:12:03;94876.00;;;2.97;57.73
65832;BME280;52593;42.648;23.332;2024-01-27T02:14:28;94876.50;;;3.33;52.78
65832;BME280;52593;42.648;23.332;2024-01-27T02:16:54;94866.34;;;3.69;50.09
65832;BME280;52593;42.648;23.332;2024-01-27T02:19:20;94871.44;;;3.82;49.22
65832;BME280;52593;42.648;23.332;2024-01-27T02:21:45;94867.69;;;3.94;48.50
65832;BME280;52593;42.648;23.332;2024-01-27T02:24:11;94873.28;;;4.01;48.01
65832;BME280;52593;42.648;23.332;2024-01-27T02:26:36;94881.53;;;4.07;47.89
65832;BME280;52593;42.648;23.332;2024-01-27T02:29:02;94876.81;;;4.11;47.68
65832;BME280;52593;42.648;23.332;2024-01-27T02:31:28;94874.56;;;4.06;48.93
65832;BME280;52593;42.648;23.332;2024-01-27T02:33:54;94866.06;;;4.03;48.32
65832;BME280;52593;42.648;23.332;2024-01-27T02:36:19;94869.41;;;4.05;48.31
65832;BME280;52593;42.648;23.332;2024-01-27T02:38:45;94865.06;;;4.04;49.22
65832;BME280;52593;42.648;23.332;2024-01-27T02:41:10;94879.56;;;4.00;48.83
65832;BME280;52593;42.648;23.332;2024-01-27T02:43:36;94885.84;;;4.08;47.63
65832;BME280;52593;42.648;23.332;2024-01-27T02:46:03;94874.84;;;4.13;48.97
65832;BME280;52593;42.648;23.332;2024-01-27T02:48:29;94871.66;;;4.19;48.00
65832;BME280;52593;42.648;23.332;2024-01-27T02:50:54;94852.00;;;4.22;46.86
65832;BME280;52593;42.648;23.332;2024-01-27T02:53:20;94856.91;;;4.26;46.68
65832;BME280;52593;42.648;23.332;2024-01-27T02:55:45;94859.94;;;4.32;46.37
65832;BME280;52593;42.648;23.332;2024-01-27T02:58:11;94858.31;;;4.31;46.09
65832;BME280;52593;42.648;23.332;2024-01-27T03:00:37;94860.13;;;4.40;46.43
65832;BME280;52593;42.648;23.332;2024-01-27T03:03:02;94872.38;;;4.41;46.63
65832;BME280;52593;42.648;23.332;2024-01-27T03:05:28;94871.28;;;4.34;47.98
65832;BME280;52593;42.648;23.332;2024-01-27T03:07:53;94889.09;;;4.22;49.98
65832;BME280;52593;42.648;23.332;2024-01-27T03:10:19;94892.44;;;4.24;51.25
65832;BME280;52593;42.648;23.332;2024-01-27T03:12:44;94879.19;;;4.24;52.21
65832;BME280;52593;42.648;23.332;2024-01-27T03:15:10;94891.03;;;4.20;53.25
65832;BME280;52593;42.648;23.332;2024-01-27T03:17:35;94883.38;;;4.17;54.38
65832;BME280;52593;42.648;23.332;2024-01-27T03:20:00;94890.03;;;4.11;55.72
65832;BME280;52593;42.648;23.332;2024-01-27T03:22:26;94905.19;;;3.99;57.02
65832;BME280;52593;42.648;23.332;2024-01-27T03:24:52;94890.13;;;3.90;59.56
65832;BME280;52593;42.648;23.332;2024-01-27T03:27:20;94882.72;;;3.84;60.36
65832;BME280;52593;42.648;23.332;2024-01-27T03:29:45;94891.47;;;3.84;62.51
65832;BME280;52593;42.648;23.332;2024-01-27T03:32:11;94885.06;;;3.77;64.41
65832;BME280;52593;42.648;23.332;2024-01-27T03:34:43;94885.34;;;3.74;66.10
65832;BME280;52593;42.648;23.332;2024-01-27T03:37:08;94882.19;;;3.59;67.52
65832;BME280;52593;42.648;23.332;2024-01-27T03:39:33;94875.50;;;3.55;68.40
65832;BME280;52593;42.648;23.332;2024-01-27T03:41:59;94868.47;;;3.44;69.33
65832;BME280;52593;42.648;23.332;2024-01-27T03:44:24;94865.03;;;3.53;70.32
65832;BME280;52593;42.648;23.332;2024-01-27T03:46:50;94871.47;;;3.61;71.66
65832;BME280;52593;42.648;23.332;2024-01-27T03:49:16;94874.97;;;3.61;73.96
65832;BME280;52593;42.648;23.332;2024-01-27T03:51:42;94870.47;;;3.52;75.56
65832;BME280;52593;42.648;23.332;2024-01-27T03:54:07;94865.75;;;3.55;77.09
65832;BME280;52593;42.648;23.332;2024-01-27T03:56:32;94861.97;;;3.48;77.16
65832;BME280;52593;42.648;23.332;2024-01-27T03:58:58;94856.09;;;3.45;77.21
65832;BME280;52593;42.648;23.332;2024-01-27T04:01:23;94847.28;;;3.34;77.52
65832;BME280;52593;42.648;23.332;2024-01-27T04:03:49;94857.22;;;3.21;78.09
65832;BME280;52593;42.648;23.332;2024-01-27T04:06:15;94864.47;;;3.19;78.04
65832;BME280;52593;42.648;23.332;2024-01-27T04:08:41;94855.38;;;3.12;78.81
65832;BME280;52593;42.648;23.332;2024-01-27T04:11:09;94867.75;;;3.11;79.54
65832;BME280;52593;42.648;23.332;2024-01-27T04:13:35;94857.84;;;3.03;79.87
65832;BME280;52593;42.648;23.332;2024-01-27T04:16:01;94854.34;;;3.03;79.76
65832;BME280;52593;42.648;23.332;2024-01-27T04:18:26;94854.06;;;3.06;80.40
65832;BME280;52593;42.648;23.332;2024-01-27T04:20:52;94862.47;;;3.11;80.68
65832;BME280;52593;42.648;23.332;2024-01-27T04:23:17;94847.31;;;3.13;80.51
65832;BME280;52593;42.648;23.332;2024-01-27T04:25:44;94842.16;;;3.12;80.66
65832;BME280;52593;42.648;23.332;2024-01-27T04:28:09;94861.31;;;3.04;80.96
65832;BME280;52593;42.648;23.332;2024-01-27T04:30:37;94859.88;;;3.00;81.33
65832;BME280;52593;42.648;23.332;2024-01-27T04:33:02;94858.84;;;3.12;81.35
65832;BME280;52593;42.648;23.332;2024-01-27T04:35:29;94861.09;;;3.17;81.50
65832;BME280;52593;42.648;23.332;2024-01-27T04:37:54;94864.34;;;3.20;81.69
65832;BME280;52593;42.648;23.332;2024-01-27T04:40:20;94870.31;;;3.22;82.02
65832;BME280;52593;42.648;23.332;2024-01-27T04:42:45;94861.88;;;3.29;81.80
65832;BME280;52593;42.648;23.332;2024-01-27T04:45:14;94861.88;;;3.29;81.73
65832;BME280;52593;42.648;23.332;2024-01-27T04:47:40;94867.22;;;3.38;81.83
65832;BME280;52593;42.648;23.332;2024-01-27T04:50:06;94852.88;;;3.41;82.29
65832;BME280;52593;42.648;23.332;2024-01-27T04:52:31;94858.88;;;3.43;82.64
65832;BME280;52593;42.648;23.332;2024-01-27T04:54:57;94859.97;;;3.41;82.96
65832;BME280;52593;42.648;23.332;2024-01-27T04:57:23;94857.72;;;3.36;83.69
65832;BME280;52593;42.648;23.332;2024-01-27T04:59:49;94856.78;;;3.37;84.19
65832;BME280;52593;42.648;23.332;2024-01-27T05:02:14;94869.47;;;3.43;84.47
65832;BME280;52593;42.648;23.332;2024-01-27T05:04:40;94868.19;;;3.37;84.63
65832;BME280;52593;42.648;23.332;2024-01-27T05:07:05;94877.94;;;3.37;85.08
65832;BME280;52593;42.648;23.332;2024-01-27T05:09:30;94872.38;;;3.40;84.62
65832;BME280;52593;42.648;23.332;2024-01-27T05:11:56;94893.00;;;3.46;85.95
65832;BME280;52593;42.648;23.332;2024-01-27T05:14:21;94884.63;;;3.41;86.43
65832;BME280;52593;42.648;23.332;2024-01-27T05:16:47;94879.84;;;3.35;87.19
65832;BME280;52593;42.648;23.332;2024-01-27T05:19:12;94889.16;;;3.29;87.23
65832;BME280;52593;42.648;23.332;2024-01-27T05:21:38;94889.88;;;3.31;88.24
65832;BME280;52593;42.648;23.332;2024-01-27T05:24:04;94884.97;;;3.27;89.04
65832;BME280;52593;42.648;23.332;2024-01-27T05:26:29;94883.28;;;3.26;89.72
65832;BME280;52593;42.648;23.332;2024-01-27T05:28:55;94891.41;;;3.34;90.17
65832;BME280;52593;42.648;23.332;2024-01-27T05:31:21;94886.41;;;3.31;91.03
65832;BME280;52593;42.648;23.332;2024-01-27T05:33:46;94882.47;;;3.25;90.74
65832;BME280;52593;42.648;23.332;2024-01-27T05:36:12;94882.31;;;3.27;91.26
65832;BME280;52593;42.648;23.332;2024-01-27T05:38:37;94880.38;;;3.29;91.18
65832;BME280;52593;42.648;23.332;2024-01-27T05:41:03;94886.19;;;3.22;91.21
65832;BME280;52593;42.648;23.332;2024-01-27T05:43:29;94891.47;;;3.22;92.09
65832;BME280;52593;42.648;23.332;2024-01-27T05:45:55;94898.72;;;3.20;92.51
65832;BME280;52593;42.648;23.332;2024-01-27T05:48:20;94894.66;;;3.16;93.13
65832;BME280;52593;42.648;23.332;2024-01-27T05:50:56;94895.34;;;3.18;93.24
65832;BME280;52593;42.648;23.332;2024-01-27T05:53:22;94893.69;;;3.17;93.64
65832;BME280;52593;42.648;23.332;2024-01-27T05:55:48;94884.16;;;3.05;93.69
65832;BME280;52593;42.648;23.332;2024-01-27T05:58:13;94889.94;;;2.99;94.36
65832;BME280;52593;42.648;23.332;2024-01-27T06:00:39;94908.72;;;2.96;95.35
65832;BME280;52593;42.648;23.332;2024-01-27T06:03:04;94914.25;;;2.93;95.49
65832;BME280;52593;42.648;23.332;2024-01-27T06:05:30;94907.66;;;2.87;96.29
65832;BME280;52593;42.648;23.332;2024-01-27T06:07:55;94910.19;;;2.89;96.14
65832;BME280;52593;42.648;23.332;2024-01-27T06:10:21;94896.72;;;2.92;96.23
65832;BME280;52593;42.648;23.332;2024-01-27T06:12:47;94910.50;;;2.95;96.59
65832;BME280;52593;42.648;23.332;2024-01-27T06:15:13;94914.81;;;2.96;95.90
65832;BME280;52593;42.648;23.332;2024-01-27T06:17:40;94913.09;;;3.07;95.65
65832;BME280;52593;42.648;23.332;2024-01-27T06:20:06;94929.84;;;3.17;95.41
65832;BME280;52593;42.648;23.332;2024-01-27T06:22:32;94932.09;;;3.21;95.38
65832;BME280;52593;42.648;23.332;2024-01-27T06:24:58;94935.47;;;3.24;94.57
65832;BME280;52593;42.648;23.332;2024-01-27T06:27:23;94923.28;;;3.32;94.81
65832;BME280;52593;42.648;23.332;2024-01-27T06:29:49;94931.00;;;3.45;92.95
65832;BME280;52593;42.648;23.332;2024-01-27T06:32:14;94946.09;;;3.54;91.98
65832;BME280;52593;42.648;23.332;2024-01-27T06:34:41;94940.03;;;3.64;90.96
65832;BME280;52593;42.648;23.332;2024-01-27T06:37:06;94971.00;;;3.73;90.25
65832;BME280;52593;42.648;23.332;2024-01-27T06:39:32;94960.84;;;3.78;88.93
65832;BME280;52593;42.648;23.332;2024-01-27T06:41:57;94964.78;;;3.84;88.09
65832;BME280;52593;42.648;23.332;2024-01-27T06:44:23;94966.63;;;3.93;87.55
65832;BME280;52593;42.648;23.332;2024-01-27T06:46:49;94973.91;;;4.01;87.51
65832;BME280;52593;42.648;23.332;2024-01-27T06:49:15;94962.88;;;3.96;85.96
65832;BME280;52593;42.648;23.332;2024-01-27T06:51:43;94985.03;;;3.95;85.97
65832;BME280;52593;42.648;23.332;2024-01-27T06:54:08;94989.34;;;3.96;85.34
65832;BME280;52593;42.648;23.332;2024-01-27T06:56:34;94971.22;;;3.91;84.71
65832;BME280;52593;42.648;23.332;2024-01-27T06:58:59;94994.19;;;3.90;84.14
65832;BME280;52593;42.648;23.332;2024-01-27T07:01:25;94994.66;;;3.96;83.37
65832;BME280;52593;42.648;23.332;2024-01-27T07:03:50;94973.91;;;4.01;82.42
65832;BME280;52593;42.648;23.332;2024-01-27T07:06:16;94982.16;;;4.07;81.83
65832;BME280;52593;42.648;23.332;2024-01-27T07:08:41;94966.97;;;4.09;82.34
65832;BME280;52593;42.648;23.332;2024-01-27T07:11:07;94964.47;;;4.08;82.09
65832;BME280;52593;42.648;23.332;2024-01-27T07:13:32;94967.94;;;4.08;82.18
65832;BME280;52593;42.648;23.332;2024-01-27T07:15:58;94977.97;;;4.05;81.19
65832;BME280;52593;42.648;23.332;2024-01-27T07:18:24;94971.84;;;4.04;80.76
65832;BME280;52593;42.648;23.332;2024-01-27T07:20:50;94963.22;;;4.12;80.65
65832;BME280;52593;42.648;23.332;2024-01-27T07:23:16;94983.53;;;4.02;80.71
65832;BME280;52593;42.648;23.332;2024-01-27T07:25:43;94967.38;;;4.05;80.67
65832;BME280;52593;42.648;23.332;2024-01-27T07:28:08;94981.72;;;4.02;79.40
65832;BME280;52593;42.648;23.332;2024-01-27T07:30:34;94990.13;;;4.07;79.88
65832;BME280;52593;42.648;23.332;2024-01-27T07:32:59;94996.38;;;4.06;79.18
65832;BME280;52593;42.648;23.332;2024-01-27T07:35:25;95007.38;;;4.02;78.75
65832;BME280;52593;42.648;23.332;2024-01-27T07:37:50;95022.44;;;4.01;77.75
65832;BME280;52593;42.648;23.332;2024-01-27T07:40:16;95040.31;;;3.88;77.63
65832;BME280;52593;42.648;23.332;2024-01-27T07:42:41;95052.69;;;3.87;77.83
65832;BME280;52593;42.648;23.332;2024-01-27T07:45:07;95065.44;;;3.72;76.82
65832;BME280;52593;42.648;23.332;2024-01-27T07:47:34;95052.84;;;3.65;76.95
65832;BME280;52593;42.648;23.332;2024-01-27T07:49:59;95080.59;;;3.49;76.45
65832;BME280;52593;42.648;23.332;2024-01-27T07:52:25;95060.91;;;3.42;77.38
65832;BME280;52593;42.648;23.332;2024-01-27T07:54:50;95059.81;;;3.45;77.81
65832;BME280;52593;42.648;23.332;2024-01-27T07:57:16;95085.66;;;3.41;75.05
65832;BME280;52593;42.648;23.332;2024-01-27T07:59:41;95037.22;;;3.41;75.94
65832;BME280;52593;42.648;23.332;2024-01-27T08:02:07;95064.00;;;3.47;76.33
65832;BME280;52593;42.648;23.332;2024-01-27T08:04:32;95055.34;;;3.45;76.36
65832;BME280;52593;42.648;23.332;2024-01-27T08:06:58;95045.03;;;3.42;76.11
65832;BME280;52593;42.648;23.332;2024-01-27T08:09:24;95082.44;;;3.37;75.91
65832;BME280;52593;42.648;23.332;2024-01-27T08:11:50;95062.84;;;3.40;76.18
65832;BME280;52593;42.648;23.332;2024-01-27T08:14:17;95073.44;;;3.40;76.79
65832;BME280;52593;42.648;23.332;2024-01-27T08:16:44;95071.22;;;3.45;77.50
65832;BME280;52593;42.648;23.332;2024-01-27T08:19:09;95050.31;;;3.42;76.69
65832;BME280;52593;42.648;23.332;2024-01-27T08:21:36;95029.97;;;3.43;77.76
65832;BME280;52593;42.648;23.332;2024-01-27T08:24:02;95043.63;;;3.59;75.88
65832;BME280;52593;42.648;23.332;2024-01-27T08:26:27;95056.06;;;3.68;73.94
65832;BME280;52593;42.648;23.332;2024-01-27T08:28:53;95045.34;;;3.70;74.13
65832;BME280;52593;42.648;23.332;2024-01-27T08:31:21;95055.28;;;3.78;71.87
65832;BME280;52593;42.648;23.332;2024-01-27T08:33:46;95063.28;;;3.87;71.75
65832;BME280;52593;42.648;23.332;2024-01-27T08:36:15;95055.34;;;3.87;71.42
65832;BME280;52593;42.648;23.332;2024-01-27T08:38:40;95028.88;;;3.87;71.06
65832;BME280;52593;42.648;23.332;2024-01-27T08:41:06;95058.13;;;3.86;72.07
65832;BME280;52593;42.648;23.332;2024-01-27T08:43:31;95055.28;;;3.78;72.73
65832;BME280;52593;42.648;23.332;2024-01-27T08:45:57;95041.53;;;3.84;73.15
65832;BME280;52593;42.648;23.332;2024-01-27T08:48:25;95037.03;;;3.96;73.13
65832;BME280;52593;42.648;23.332;2024-01-27T08:50:51;95031.84;;;3.94;72.29
65832;BME280;52593;42.648;23.332;2024-01-27T08:53:16;95028.56;;;4.02;71.98
65832;BME280;52593;42.648;23.332;2024-01-27T08:55:42;95034.25;;;3.97;71.95
65832;BME280;52593;42.648;23.332;2024-01-27T08:58:08;95038.06;;;4.04;71.57
65832;BME280;52593;42.648;23.332;2024-01-27T09:00:33;95018.22;;;3.99;72.66
65832;BME280;52593;42.648;23.332;2024-01-27T09:02:59;95000.13;;;4.04;72.25
65832;BME280;52593;42.648;23.332;2024-01-27T09:05:24;95011.03;;;4.10;71.83
65832;BME280;52593;42.648;23.332;2024-01-27T09:07:50;94990.91;;;4.29;72.20
65832;BME280;52593;42.648;23.332;2024-01-27T09:10:16;94981.06;;;4.51;69.50
65832;BME280;52593;42.648;23.332;2024-01-27T09:12:42;94988.88;;;4.52;68.55
65832;BME280;52593;42.648;23.332;2024-01-27T09:15:08;94988.94;;;4.31;69.38
65832;BME280;52593;42.648;23.332;2024-01-27T09:17:33;94991.47;;;4.42;70.18
65832;BME280;52593;42.648;23.332;2024-01-27T09:19:59;94981.69;;;4.33;69.31
65832;BME280;52593;42.648;23.332;2024-01-27T09:22:24;94997.44;;;4.35;69.94
65832;BME280;52593;42.648;23.332;2024-01-27T09:24:51;95021.66;;;4.20;69.70
65832;BME280;52593;42.648;23.332;2024-01-27T09:27:16;94981.94;;;4.20;70.27
65832;BME280;52593;42.648;23.332;2024-01-27T09:29:42;94990.34;;;4.35;69.83
65832;BME280;52593;42.648;23.332;2024-01-27T09:32:07;94984.75;;;4.28;69.25
65832;BME280;52593;42.648;23.332;2024-01-27T09:34:33;95000.50;;;4.30;69.75
65832;BME280;52593;42.648;23.332;2024-01-27T09:36:58;95004.59;;;4.44;69.30
65832;BME280;52593;42.648;23.332;2024-01-27T09:39:24;95025.31;;;4.70;69.23
65832;BME280;52593;42.648;23.332;2024-01-27T09:41:50;95053.91;;;4.66;68.74
65832;BME280;52593;42.648;23.332;2024-01-27T09:44:18;95028.22;;;4.57;68.83
65832;BME280;52593;42.648;23.332;2024-01-27T09:46:47;95031.16;;;4.63;69.12
65832;BME280;52593;42.648;23.332;2024-01-27T09:49:15;95037.88;;;4.68;68.85
65832;BME280;52593;42.648;23.332;2024-01-27T09:51:41;95033.41;;;4.68;68.76
65832;BME280;52593;42.648;23.332;2024-01-27T09:54:07;95043.19;;;4.77;69.38
65832;BME280;52593;42.648;23.332;2024-01-27T09:56:33;95053.78;;;4.77;69.10
65832;BME280;52593;42.648;23.332;2024-01-27T09:58:59;95062.09;;;4.22;69.65
65832;BME280;52593;42.648;23.332;2024-01-27T10:01:26;95052.53;;;4.31;69.83
65832;BME280;52593;42.648;23.332;2024-01-27T10:03:54;95058.22;;;4.26;70.12
65832;BME280;52593;42.648;23.332;2024-01-27T10:06:20;95069.78;;;4.25;70.40
65832;BME280;52593;42.648;23.332;2024-01-27T10:08:53;95058.34;;;4.25;70.89
65832;BME280;52593;42.648;23.332;2024-01-27T10:11:20;95078.44;;;4.27;71.21
65832;BME280;52593;42.648;23.332;2024-01-27T10:13:57;95087.19;;;4.18;70.94
65832;BME280;52593;42.648;23.332;2024-01-27T10:16:23;95093.91;;;4.01;71.32
65832;BME280;52593;42.648;23.332;2024-01-27T10:18:59;95102.69;;;4.02;71.61
65832;BME280;52593;42.648;23.332;2024-01-27T10:21:24;95089.84;;;3.76;73.32
65832;BME280;52593;42.648;23.332;2024-01-27T10:23:51;95117.88;;;3.79;72.50
65832;BME280;52593;42.648;23.332;2024-01-27T10:26:17;95088.66;;;3.69;72.27
65832;BME280;52593;42.648;23.332;2024-01-27T10:28:42;95105.06;;;3.63;72.60
65832;BME280;52593;42.648;23.332;2024-01-27T10:31:12;95116.25;;;3.66;73.04
65832;BME280;52593;42.648;23.332;2024-01-27T10:33:38;95101.91;;;3.69;73.04
65832;BME280;52593;42.648;23.332;2024-01-27T10:36:04;95121.19;;;3.60;72.81
65832;BME280;52593;42.648;23.332;2024-01-27T10:38:37;95113.19;;;3.50;73.64
65832;BME280;52593;42.648;23.332;2024-01-27T10:41:07;95098.41;;;3.68;73.46
65832;BME280;52593;42.648;23.332;2024-01-27T10:43:38;95117.53;;;3.72;73.26
65832;BME280;52593;42.648;23.332;2024-01-27T10:46:06;95113.00;;;3.63;72.88
65832;BME280;52593;42.648;23.332;2024-01-27T10:48:34;95112.72;;;3.45;73.65
65832;BME280;52593;42.648;23.332;2024-01-27T10:51:03;95123.31;;;3.45;73.68
65832;BME280;52593;42.648;23.332;2024-01-27T10:53:32;95104.06;;;3.43;74.03
65832;BME280;52593;42.648;23.332;2024-01-27T10:56:01;95121.25;;;3.48;73.86
65832;BME280;52593;42.648;23.332;2024-01-27T10:58:30;95119.34;;;3.39;74.27
65832;BME280;52593;42.648;23.332;2024-01-27T11:00:56;95119.34;;;3.39;74.58
65832;BME280;52593;42.648;23.332;2024-01-27T11:03:23;95127.03;;;3.42;74.87
65832;BME280;52593;42.648;23.332;2024-01-27T11:05:52;95136.19;;;3.38;74.64
65832;BME280;52593;42.648;23.332;2024-01-27T11:08:18;95153.13;;;3.47;74.56
65832;BME280;52593;42.648;23.332;2024-01-27T11:10:45;95153.03;;;3.37;74.97
65832;BME280;52593;42.648;23.332;2024-01-27T11:13:11;95140.66;;;3.26;75.39
65832;BME280;52593;42.648;23.332;2024-01-27T11:15:36;95142.72;;;3.34;75.75
65832;BME280;52593;42.648;23.332;2024-01-27T11:18:04;95146.63;;;3.39;76.16
65832;BME280;52593;42.648;23.332;2024-01-27T11:20:33;95149.91;;;3.32;76.29
65832;BME280;52593;42.648;23.332;2024-01-27T11:23:09;95154.88;;;3.25;75.87
65832;BME280;52593;42.648;23.332;2024-01-27T11:25:35;95141.50;;;3.27;76.96
65832;BME280;52593;42.648;23.332;2024-01-27T11:28:10;95155.19;;;3.32;76.49
65832;BME280;52593;42.648;23.332;2024-01-27T11:30:38;95153.28;;;3.22;76.31
65832;BME280;52593;42.648;23.332;2024-01-27T11:33:05;95167.25;;;3.13;76.91
65832;BME280;52593;42.648;23.332;2024-01-27T11:35:31;95159.34;;;3.02;77.71
65832;BME280;52593;42.648;23.332;2024-01-27T11:37:56;95176.41;;;2.98;77.11
65832;BME280;52593;42.648;23.332;2024-01-27T11:40:22;95149.25;;;3.07;77.81
65832;BME280;52593;42.648;23.332;2024-01-27T11:43:00;95148.78;;;3.02;77.33
65832;BME280;52593;42.648;23.332;2024-01-27T11:45:26;95154.44;;;2.97;77.51
65832;BME280;52593;42.648;23.332;2024-01-27T11:47:55;95153.47;;;3.10;77.11
65832;BME280;52593;42.648;23.332;2024-01-27T11:50:22;95154.66;;;3.06;76.66
65832;BME280;52593;42.648;23.332;2024-01-27T11:52:48;95160.66;;;3.08;76.32
65832;BME280;52593;42.648;23.332;2024-01-27T11:55:14;95155.13;;;3.11;75.59
65832;BME280;52593;42.648;23.332;2024-01-27T11:57:41;95149.69;;;3.12;75.50
65832;BME280;52593;42.648;23.332;2024-01-27T12:00:07;95148.63;;;3.15;75.19
65832;BME280;52593;42.648;23.332;2024-01-27T12:02:35;95154.88;;;3.14;75.44
65832;BME280;52593;42.648;23.332;2024-01-27T12:05:01;95147.88;;;3.24;75.21
65832;BME280;52593;42.648;23.332;2024-01-27T12:07:27;95153.75;;;3.28;75.18
65832;BME280;52593;42.648;23.332;2024-01-27T12:09:52;95155.19;;;3.32;74.64
65832;BME280;52593;42.648;23.332;2024-01-27T12:12:18;95172.94;;;3.52;73.96
65832;BME280;52593;42.648;23.332;2024-01-27T12:14:50;95169.94;;;3.46;73.19
65832;BME280;52593;42.648;23.332;2024-01-27T12:17:17;95174.16;;;3.48;73.25
65832;BME280;52593;42.648;23.332;2024-01-27T12:19:47;95168.00;;;3.59;72.56
65832;BME280;52593;42.648;23.332;2024-01-27T12:22:29;95171.78;;;3.78;72.07
65832;BME280;52593;42.648;23.332;2024-01-27T12:25:16;95174.97;;;3.92;70.78
65832;BME280;52593;42.648;23.332;2024-01-27T12:27:42;95171.56;;;3.90;69.75
65832;BME280;52593;42.648;23.332;2024-01-27T12:30:08;95168.31;;;3.98;70.29
65832;BME280;52593;42.648;23.332;2024-01-27T12:32:34;95189.97;;;4.24;68.66
65832;BME280;52593;42.648;23.332;2024-01-27T12:35:06;95165.09;;;4.37;68.08
65832;BME280;52593;42.648;23.332;2024-01-27T12:37:31;95174.69;;;4.38;67.28
65832;BME280;52593;42.648;23.332;2024-01-27T12:39:57;95162.22;;;4.50;67.04
65832;BME280;52593;42.648;23.332;2024-01-27T12:42:22;95180.72;;;4.19;67.38
65832;BME280;52593;42.648;23.332;2024-01-27T12:44:48;95176.44;;;4.49;67.15
65832;BME280;52593;42.648;23.332;2024-01-27T12:47:14;95184.75;;;4.65;66.59
65832;BME280;52593;42.648;23.332;2024-01-27T12:49:40;95195.63;;;4.41;66.54
65832;BME280;52593;42.648;23.332;2024-01-27T12:52:06;95180.00;;;4.38;66.96
65832;BME280;52593;42.648;23.332;2024-01-27T12:54:32;95182.25;;;4.42;67.18